createdAt,value
2023-01-29T00:00:00.226Z,21.65
2023-01-29T00:02:27.128Z,19.77
2023-01-29T00:05:12.955Z,20.23
2023-01-29T00:07:48.566Z,19.10
2023-01-29T00:10:22.312Z,18.30
2023-01-29T00:12:54.564Z,17.83
2023-01-29T00:15:28.283Z,17.50
2023-01-29T00:17:55.019Z,18.10
2023-01-29T00:20:28.257Z,17.83
2023-01-29T00:22:55.128Z,17.60
2023-01-29T00:25:28.282Z,20.75
2023-01-29T00:27:56.891Z,20.75
2023-01-29T00:30:30.237Z,20.92
2023-01-29T00:33:04.810Z,20.70
2023-01-29T00:35:39.260Z,21.38
2023-01-29T00:38:06.095Z,19.65
2023-01-29T00:40:59.267Z,21.88
2023-01-29T00:43:45.203Z,20.67
2023-01-29T00:46:18.391Z,21.05
2023-01-29T00:48:45.285Z,19.77
2023-01-29T00:51:18.313Z,21.05
2023-01-29T00:53:52.303Z,20.50
2023-01-29T00:56:25.267Z,18.63
2023-01-29T00:58:52.114Z,19.20
2023-01-29T01:01:46.358Z,20.67
2023-01-29T01:04:13.560Z,18.98
2023-01-29T01:06:48.422Z,18.55
2023-01-29T01:09:40.304Z,18.20
2023-01-29T01:12:13.310Z,16.40
2023-01-29T01:14:43.131Z,18.48
2023-01-29T01:17:19.479Z,18.65
2023-01-29T01:19:46.254Z,17.13
2023-01-29T01:22:13.144Z,15.70
2023-01-29T01:24:46.533Z,14.82
2023-01-29T01:27:24.386Z,15.98
2023-01-29T01:29:51.401Z,17.35
2023-01-29T01:32:25.398Z,16.65
2023-01-29T01:34:52.903Z,17.00
2023-01-29T01:37:27.375Z,17.25
2023-01-29T01:39:57.846Z,16.40
2023-01-29T01:42:37.341Z,15.70
2023-01-29T01:45:07.946Z,17.58
2023-01-29T01:48:18.397Z,16.80
2023-01-29T01:50:53.737Z,15.85
2023-01-29T01:53:45.368Z,16.95
2023-01-29T01:56:21.519Z,14.93
2023-01-29T01:58:59.498Z,15.65
2023-01-29T02:01:30.433Z,19.58
2023-01-29T02:04:29.452Z,18.98
2023-01-29T02:07:17.444Z,17.73
2023-01-29T02:10:12.515Z,19.00
2023-01-29T02:12:47.403Z,17.38
2023-01-29T02:15:20.438Z,18.50
2023-01-29T02:17:48.362Z,15.30
2023-01-29T02:20:32.453Z,17.02
2023-01-29T02:23:12.607Z,16.30
2023-01-29T02:26:22.440Z,14.88
2023-01-29T02:29:25.056Z,14.50
2023-01-29T02:32:24.483Z,17.35
2023-01-29T02:35:38.428Z,16.60
2023-01-29T02:38:39.296Z,18.17
2023-01-29T02:41:22.467Z,20.33
2023-01-29T02:44:21.441Z,19.13
2023-01-29T02:47:05.431Z,19.27
2023-01-29T02:49:38.444Z,20.10
2023-01-29T02:52:16.466Z,20.73
2023-01-29T02:54:53.471Z,21.80
2023-01-29T02:57:35.486Z,22.53
2023-01-29T03:00:25.499Z,21.25
2023-01-29T03:03:51.483Z,20.88
2023-01-29T03:06:31.583Z,19.83
2023-01-29T03:09:02.213Z,19.13
2023-01-29T03:11:47.462Z,18.50
2023-01-29T03:14:25.976Z,17.80
2023-01-29T03:17:00.532Z,17.25
2023-01-29T03:19:41.971Z,16.27
2023-01-29T03:22:17.590Z,19.42
2023-01-29T03:25:14.714Z,18.70
2023-01-29T03:28:24.596Z,20.98
2023-01-29T03:31:15.813Z,18.63
2023-01-29T03:33:58.542Z,17.88
2023-01-29T03:36:45.257Z,17.05
2023-01-29T03:39:20.537Z,18.30
2023-01-29T03:42:01.391Z,19.90
2023-01-29T03:45:14.536Z,19.23
2023-01-29T03:48:08.592Z,22.58
2023-01-29T03:50:50.608Z,20.40
2023-01-29T03:53:22.905Z,21.45
2023-01-29T03:56:13.560Z,21.23
2023-01-29T03:58:58.610Z,23.60
2023-01-29T04:01:44.718Z,25.80
2023-01-29T04:04:24.628Z,24.45
2023-01-29T04:06:53.160Z,23.10
2023-01-29T04:09:42.592Z,21.23
2023-01-29T04:12:11.400Z,21.48
2023-01-29T04:14:45.634Z,25.30
2023-01-29T04:17:23.606Z,22.75
2023-01-29T04:19:57.653Z,22.35
2023-01-29T04:22:36.213Z,23.33
2023-01-29T04:25:15.603Z,22.67
2023-01-29T04:28:06.262Z,24.35
2023-01-29T04:31:01.778Z,23.38
2023-01-29T04:33:58.902Z,22.40
2023-01-29T04:36:37.653Z,23.20
2023-01-29T04:39:13.592Z,24.13
2023-01-29T04:42:04.635Z,24.85
2023-01-29T04:45:18.819Z,23.73
2023-01-29T04:48:22.649Z,22.70
2023-01-29T04:51:11.098Z,21.20
2023-01-29T04:53:55.697Z,22.45
2023-01-29T04:56:42.648Z,25.75
2023-01-29T04:59:15.179Z,24.80
2023-01-29T05:01:49.740Z,24.90
2023-01-29T05:04:20.433Z,25.25
2023-01-29T05:07:01.686Z,23.67
2023-01-29T05:09:28.699Z,25.25
2023-01-29T05:12:02.683Z,26.05
2023-01-29T05:14:35.172Z,25.02
2023-01-29T05:17:15.670Z,23.27
2023-01-29T05:19:49.667Z,22.67
2023-01-29T05:22:28.686Z,24.38
2023-01-29T05:24:55.639Z,24.23
2023-01-29T05:27:59.716Z,24.90
2023-01-29T05:30:26.726Z,24.75
2023-01-29T05:32:59.756Z,27.50
2023-01-29T05:35:37.458Z,27.80
2023-01-29T05:38:15.759Z,26.38
2023-01-29T05:40:43.167Z,27.83
2023-01-29T05:43:29.749Z,24.95
2023-01-29T05:45:58.995Z,23.02
2023-01-29T05:48:29.019Z,22.20
2023-01-29T05:51:10.798Z,22.02
2023-01-29T05:53:44.756Z,21.80
2023-01-29T05:56:11.575Z,23.05
2023-01-29T05:58:38.554Z,23.08
2023-01-29T06:01:22.801Z,23.75
2023-01-29T06:03:57.777Z,22.88
2023-01-29T06:06:30.799Z,22.98
2023-01-29T06:08:57.579Z,23.10
2023-01-29T06:11:38.839Z,20.95
2023-01-29T06:14:13.740Z,19.33
2023-01-29T06:16:48.821Z,19.20
2023-01-29T06:19:15.959Z,21.77
2023-01-29T06:21:54.786Z,20.77
2023-01-29T06:24:21.647Z,23.48
2023-01-29T06:26:54.819Z,21.27
2023-01-29T06:29:24.130Z,20.85
2023-01-29T06:31:58.318Z,21.65
2023-01-29T06:34:33.893Z,20.58
2023-01-29T06:37:14.843Z,21.08
2023-01-29T06:39:41.705Z,23.30
2023-01-29T06:42:09.016Z,21.63
2023-01-29T06:44:42.847Z,21.52
2023-01-29T06:47:16.800Z,21.27
2023-01-29T06:49:44.744Z,20.63
2023-01-29T06:52:17.892Z,20.50
2023-01-29T06:54:44.705Z,21.73
2023-01-29T06:57:17.839Z,21.35
2023-01-29T06:59:51.808Z,20.08
2023-01-29T07:02:18.808Z,19.25
2023-01-29T07:04:51.878Z,19.42
2023-01-29T07:07:19.181Z,19.83
2023-01-29T07:09:52.945Z,20.98
2023-01-29T07:12:19.745Z,19.75
2023-01-29T07:14:52.975Z,19.98
2023-01-29T07:17:20.679Z,21.13
2023-01-29T07:19:47.478Z,20.38
2023-01-29T07:22:21.107Z,18.85
2023-01-29T07:24:55.069Z,21.73
2023-01-29T07:27:28.896Z,19.77
2023-01-29T07:29:55.808Z,20.60
2023-01-29T07:32:28.905Z,21.40
2023-01-29T07:34:59.889Z,21.60
2023-01-29T07:37:35.922Z,20.95
2023-01-29T07:40:04.989Z,21.88
2023-01-29T07:42:37.906Z,22.27
2023-01-29T07:45:07.130Z,23.10
2023-01-29T07:47:40.948Z,21.45
2023-01-29T07:50:08.488Z,20.80
2023-01-29T07:52:41.954Z,20.10
2023-01-29T07:55:16.239Z,20.95
2023-01-29T07:57:44.094Z,19.00
2023-01-29T08:00:11.784Z,21.20
2023-01-29T08:02:54.266Z,20.80
2023-01-29T08:05:21.167Z,21.83
2023-01-29T08:08:06.863Z,19.38
2023-01-29T08:10:38.186Z,20.50
2023-01-29T08:13:11.926Z,21.85
2023-01-29T08:15:45.031Z,20.60
2023-01-29T08:18:19.174Z,19.77
2023-01-29T08:20:46.220Z,22.52
2023-01-29T08:23:23.041Z,21.08
2023-01-29T08:25:49.866Z,20.65
2023-01-29T08:28:22.973Z,19.58
2023-01-29T08:30:49.805Z,21.83
2023-01-29T08:33:29.822Z,22.95
2023-01-29T08:36:04.131Z,21.52
2023-01-29T08:38:37.030Z,21.23
2023-01-29T08:41:05.006Z,20.77
2023-01-29T08:43:32.043Z,21.55
2023-01-29T08:46:08.181Z,22.48
2023-01-29T08:48:35.118Z,21.95
2023-01-29T08:51:03.025Z,21.48
2023-01-29T08:53:39.337Z,22.70
2023-01-29T08:56:06.558Z,22.63
2023-01-29T08:58:33.940Z,20.92
2023-01-29T09:01:19.091Z,21.83
2023-01-29T09:03:46.418Z,21.25
2023-01-29T09:06:21.185Z,22.98
2023-01-29T09:08:49.722Z,22.80
2023-01-29T09:11:16.621Z,21.95
2023-01-29T09:13:50.078Z,21.77
2023-01-29T09:16:17.013Z,21.50
2023-01-29T09:18:46.374Z,20.90
2023-01-29T09:21:20.197Z,20.45
2023-01-29T09:23:47.019Z,19.80
2023-01-29T09:26:13.996Z,21.40
2023-01-29T09:28:47.090Z,21.63
2023-01-29T09:31:20.147Z,21.38
2023-01-29T09:33:53.130Z,22.00
2023-01-29T09:36:19.909Z,20.25
2023-01-29T09:38:53.107Z,22.10
2023-01-29T09:41:58.457Z,22.13
2023-01-29T09:45:13.132Z,20.95
2023-01-29T09:47:52.117Z,21.42
2023-01-29T09:50:35.103Z,20.70
2023-01-29T09:53:33.099Z,21.02
2023-01-29T09:56:05.486Z,18.92
2023-01-29T10:01:26.838Z,17.42
2023-01-29T10:04:33.263Z,21.60
2023-01-29T10:07:42.201Z,20.95
2023-01-29T10:10:44.179Z,19.42
2023-01-29T10:13:32.302Z,20.93
2023-01-29T10:16:11.107Z,19.90
2023-01-29T10:19:00.174Z,22.05
2023-01-29T10:21:52.194Z,21.65
2023-01-29T10:24:41.786Z,22.60
2023-01-29T10:27:26.222Z,22.05
2023-01-29T10:29:57.493Z,22.08
2023-01-29T10:32:33.141Z,20.40
2023-01-29T10:35:14.781Z,21.80
2023-01-29T10:37:42.722Z,23.95
2023-01-29T10:40:48.219Z,23.40
2023-01-29T10:43:31.166Z,24.20
2023-01-29T10:46:00.796Z,23.25
2023-01-29T10:48:58.212Z,25.98
2023-01-29T10:51:52.485Z,22.98
2023-01-29T10:55:15.547Z,26.85
2023-01-29T10:58:46.838Z,26.25
2023-01-29T11:01:20.379Z,26.58
2023-01-29T11:03:57.944Z,26.60
2023-01-29T11:06:39.297Z,26.00
2023-01-29T11:09:38.218Z,25.90
2023-01-29T11:12:24.230Z,26.33
2023-01-29T11:15:13.969Z,26.50
2023-01-29T11:18:08.199Z,27.40
2023-01-29T11:20:41.282Z,26.77
2023-01-29T11:23:34.350Z,25.95
2023-01-29T11:26:01.753Z,27.60
2023-01-29T11:28:53.378Z,28.63
2023-01-29T11:31:28.119Z,28.58
2023-01-29T11:34:12.256Z,28.35
2023-01-29T11:36:39.780Z,27.38
2023-01-29T11:39:22.253Z,28.58
2023-01-29T11:42:10.291Z,27.95
2023-01-29T11:44:47.301Z,28.55
2023-01-29T11:47:28.606Z,27.42
2023-01-29T11:50:08.311Z,28.95
2023-01-29T11:52:48.486Z,29.67
2023-01-29T11:55:22.551Z,27.80
2023-01-29T11:58:11.295Z,27.60
2023-01-29T12:00:52.334Z,27.95
2023-01-29T12:03:31.718Z,28.40
2023-01-29T12:06:11.317Z,28.80
2023-01-29T12:08:46.347Z,28.92
2023-01-29T12:11:40.379Z,29.33
2023-01-29T12:14:33.544Z,29.98
2023-01-29T12:17:28.389Z,29.05
2023-01-29T12:20:03.932Z,30.98
2023-01-29T12:22:47.384Z,28.65
2023-01-29T12:25:40.221Z,29.65
2023-01-29T12:28:25.368Z,31.88
2023-01-29T12:31:23.356Z,31.02
2023-01-29T12:34:23.386Z,30.42
2023-01-29T12:37:00.898Z,30.38
2023-01-29T12:39:34.361Z,29.02
2023-01-29T12:42:10.265Z,29.35
2023-01-29T12:44:59.411Z,29.90
2023-01-29T12:47:50.382Z,31.90
2023-01-29T12:50:35.386Z,28.25
2023-01-29T12:53:23.156Z,31.08
2023-01-29T12:56:02.400Z,30.02
2023-01-29T12:58:54.319Z,29.15
2023-01-29T13:01:39.441Z,31.57
2023-01-29T13:04:14.921Z,28.38
2023-01-29T13:06:59.464Z,30.27
2023-01-29T13:09:30.316Z,29.60
2023-01-29T13:12:18.423Z,28.50
2023-01-29T13:14:50.212Z,28.58
2023-01-29T13:18:04.442Z,26.95
2023-01-29T13:20:35.240Z,27.15
2023-01-29T13:23:22.501Z,27.95
2023-01-29T13:25:53.585Z,27.13
2023-01-29T13:31:29.567Z,26.42
2023-01-29T13:34:05.520Z,27.20
2023-01-29T13:36:39.437Z,27.33
2023-01-29T13:39:15.518Z,28.40
2023-01-29T13:41:50.505Z,25.80
2023-01-29T13:44:32.498Z,26.88
2023-01-29T13:47:14.465Z,25.60
2023-01-29T13:49:52.497Z,27.42
2023-01-29T13:52:43.242Z,26.52
2023-01-29T13:55:41.469Z,25.92
2023-01-29T13:58:22.450Z,25.52
2023-01-29T14:00:50.389Z,26.13
2023-01-29T14:03:23.546Z,25.80
2023-01-29T14:06:07.569Z,26.92
2023-01-29T14:08:40.042Z,24.77
2023-01-29T14:11:22.483Z,26.33
2023-01-29T14:13:56.502Z,25.80
2023-01-29T14:16:23.314Z,25.48
2023-01-29T14:19:05.544Z,27.23
2023-01-29T14:21:44.516Z,26.15
2023-01-29T14:24:31.581Z,25.33
2023-01-29T14:27:05.546Z,25.45
2023-01-29T14:29:40.077Z,25.27
2023-01-29T14:32:13.555Z,25.65
2023-01-29T14:34:47.810Z,26.13
2023-01-29T14:37:21.599Z,25.50
2023-01-29T14:39:54.872Z,24.90
2023-01-29T14:42:36.532Z,25.98
2023-01-29T14:45:28.742Z,25.13
2023-01-29T14:48:05.619Z,25.50
2023-01-29T14:50:38.610Z,26.08
2023-01-29T14:53:05.415Z,24.35
2023-01-29T14:55:46.564Z,25.80
2023-01-29T14:58:33.167Z,24.13
2023-01-29T15:01:10.588Z,23.70
2023-01-29T15:03:52.170Z,24.27
2023-01-29T15:06:34.591Z,25.58
2023-01-29T15:09:17.849Z,24.63
2023-01-29T15:12:01.615Z,24.10
2023-01-29T15:15:22.567Z,23.33
2023-01-29T15:18:41.546Z,23.05
2023-01-29T15:21:23.620Z,24.27
2023-01-29T15:24:04.775Z,24.02
2023-01-29T15:26:38.672Z,23.40
2023-01-29T15:29:05.976Z,23.20
2023-01-29T15:31:41.841Z,23.08
2023-01-29T15:34:15.680Z,21.58
2023-01-29T15:36:42.598Z,24.02
2023-01-29T15:39:18.604Z,24.05
2023-01-29T15:41:46.181Z,22.15
2023-01-29T15:44:25.692Z,23.02
2023-01-29T15:47:01.065Z,21.90
2023-01-29T15:49:39.651Z,23.15
2023-01-29T15:52:19.199Z,22.15
2023-01-29T15:54:53.677Z,20.88
2023-01-29T15:57:28.238Z,21.85
2023-01-29T16:00:05.673Z,24.58
2023-01-29T16:02:32.725Z,21.55
2023-01-29T16:05:06.746Z,23.45
2023-01-29T16:07:41.774Z,23.25
2023-01-29T16:10:28.676Z,23.73
2023-01-29T16:12:56.264Z,22.70
2023-01-29T16:15:46.724Z,22.85
2023-01-29T16:18:35.160Z,23.27
2023-01-29T16:21:19.679Z,22.95
2023-01-29T16:23:57.737Z,21.95
2023-01-29T16:26:34.928Z,23.98
2023-01-29T16:29:14.792Z,24.35
2023-01-29T16:31:50.824Z,23.83
2023-01-29T16:34:34.690Z,23.95
2023-01-29T16:37:11.760Z,24.67
2023-01-29T16:39:43.664Z,23.90
2023-01-29T16:42:23.766Z,24.38
2023-01-29T16:45:04.720Z,25.45
2023-01-29T16:47:47.756Z,26.40
2023-01-29T16:50:40.724Z,25.08
2023-01-29T16:53:26.766Z,24.38
2023-01-29T16:55:53.685Z,24.60
2023-01-29T16:58:34.783Z,25.95
2023-01-29T17:01:07.192Z,24.73
2023-01-29T17:04:06.905Z,23.67
2023-01-29T17:06:40.421Z,22.83
2023-01-29T17:09:13.767Z,26.42
2023-01-29T17:11:50.856Z,23.60
2023-01-29T17:14:19.837Z,24.77
2023-01-29T17:17:01.778Z,24.98
2023-01-29T17:19:30.184Z,24.88
2023-01-29T17:22:05.835Z,27.08
2023-01-29T17:24:32.614Z,26.02
2023-01-29T17:27:07.872Z,26.77
2023-01-29T17:29:34.723Z,27.10
2023-01-29T17:32:07.940Z,27.17
2023-01-29T17:34:34.944Z,26.35
2023-01-29T17:37:07.850Z,27.08
2023-01-29T17:39:34.648Z,27.10
2023-01-29T17:42:07.863Z,27.30
2023-01-29T17:44:43.424Z,27.27
2023-01-29T17:47:21.878Z,26.35
2023-01-29T17:49:55.830Z,25.48
2023-01-29T17:52:22.632Z,25.90
2023-01-29T17:54:55.924Z,28.23
2023-01-29T17:57:29.772Z,26.17
2023-01-29T18:00:04.912Z,28.27
2023-01-29T18:02:33.915Z,27.85
2023-01-29T18:05:13.936Z,27.52
2023-01-29T18:07:43.454Z,26.88
2023-01-29T18:10:24.023Z,25.98
2023-01-29T18:12:50.875Z,28.23
2023-01-29T18:15:18.358Z,26.33
2023-01-29T18:17:54.848Z,27.30
2023-01-29T18:20:25.436Z,27.48
2023-01-29T18:22:59.976Z,27.20
2023-01-29T18:25:26.760Z,26.75
2023-01-29T18:27:53.560Z,26.00
2023-01-29T18:30:26.999Z,25.85
2023-01-29T18:33:01.998Z,26.35
2023-01-29T18:35:34.969Z,27.17
2023-01-29T18:38:07.930Z,26.80
2023-01-29T18:40:40.924Z,28.10
2023-01-29T18:43:08.021Z,26.63
2023-01-29T18:45:35.261Z,25.85
2023-01-29T18:48:09.010Z,27.27
2023-01-29T18:50:36.645Z,26.92
2023-01-29T18:53:14.949Z,27.10
2023-01-29T18:55:41.882Z,26.58
2023-01-29T18:58:28.001Z,26.38
2023-01-29T19:01:13.016Z,27.27
2023-01-29T19:03:41.584Z,25.95
2023-01-29T19:06:16.980Z,26.25
2023-01-29T19:08:50.984Z,26.45
2023-01-29T19:11:18.387Z,26.58
2023-01-29T19:13:52.977Z,25.67
2023-01-29T19:16:19.813Z,25.35
2023-01-29T19:18:46.799Z,26.20
2023-01-29T19:21:21.998Z,26.52
2023-01-29T19:23:54.972Z,26.65
2023-01-29T19:26:22.211Z,27.00
2023-01-29T19:28:48.973Z,28.35
2023-01-29T19:31:22.040Z,27.02
2023-01-29T19:33:55.082Z,25.95
2023-01-29T19:36:21.999Z,27.85
2023-01-29T19:38:56.083Z,26.80
2023-01-29T19:41:29.019Z,26.83
2023-01-29T19:43:55.894Z,25.83
2023-01-29T19:46:22.715Z,27.85
2023-01-29T19:48:57.059Z,26.92
2023-01-29T19:51:30.123Z,25.23
2023-01-29T19:54:04.044Z,27.05
2023-01-29T19:56:37.062Z,26.73
2023-01-29T19:59:05.083Z,26.08
2023-01-29T20:01:38.077Z,25.88
2023-01-29T20:04:05.988Z,25.95
2023-01-29T20:06:42.695Z,27.33
2023-01-29T20:09:16.070Z,27.52
2023-01-29T20:11:42.976Z,27.77
2023-01-29T20:14:11.176Z,27.83
2023-01-29T20:16:46.109Z,27.35
2023-01-29T20:19:14.946Z,28.52
2023-01-29T20:21:49.079Z,28.80
2023-01-29T20:24:16.044Z,27.38
2023-01-29T20:26:51.182Z,28.23
2023-01-29T20:29:19.547Z,28.45
2023-01-29T20:31:46.321Z,29.52
2023-01-29T20:34:20.156Z,29.40
2023-01-29T20:36:53.100Z,28.88
2023-01-29T20:39:26.407Z,29.33
2023-01-29T20:42:00.147Z,31.20
2023-01-29T20:44:33.108Z,28.10
2023-01-29T20:47:05.657Z,27.38
2023-01-29T20:49:39.129Z,30.20
2023-01-29T20:52:08.594Z,29.58
2023-01-29T20:54:42.147Z,30.73
2023-01-29T20:57:09.313Z,30.90
2023-01-29T20:59:43.227Z,30.13
2023-01-29T21:02:10.982Z,30.33
2023-01-29T21:04:37.760Z,28.50
2023-01-29T21:07:11.134Z,30.65
2023-01-29T21:09:37.912Z,29.02
2023-01-29T21:12:12.124Z,29.15
2023-01-29T21:14:45.181Z,28.75
2023-01-29T21:17:12.001Z,29.60
2023-01-29T21:19:45.121Z,30.05
2023-01-29T21:22:20.219Z,29.05
2023-01-29T21:24:47.120Z,29.25
2023-01-29T21:27:20.195Z,29.27
2023-01-29T21:29:47.099Z,30.00
2023-01-29T21:32:21.280Z,28.85
2023-01-29T21:34:48.063Z,29.40
2023-01-29T21:37:22.217Z,30.30
2023-01-29T21:39:49.036Z,30.83
2023-01-29T21:42:41.203Z,29.70
2023-01-29T21:45:15.213Z,30.55
2023-01-29T21:47:42.064Z,30.70
2023-01-29T21:50:16.702Z,31.40
2023-01-29T21:52:50.239Z,29.73
2023-01-29T21:55:17.233Z,30.95
2023-01-29T21:57:44.534Z,30.35
2023-01-29T22:00:19.452Z,30.05
2023-01-29T22:02:53.438Z,30.48
2023-01-29T22:05:35.229Z,29.98
2023-01-29T22:08:11.244Z,30.15
2023-01-29T22:10:38.973Z,31.45
2023-01-29T22:13:12.385Z,29.38
2023-01-29T22:15:39.179Z,31.58
2023-01-29T22:18:12.260Z,30.17
2023-01-29T22:20:39.169Z,29.80
2023-01-29T22:23:12.311Z,30.50
2023-01-29T22:25:45.253Z,30.48
2023-01-29T22:28:19.271Z,29.58
2023-01-29T22:30:53.356Z,31.48
2023-01-29T22:33:20.136Z,29.25
2023-01-29T22:35:59.276Z,28.42
2023-01-29T22:38:26.468Z,28.67
2023-01-29T22:41:01.350Z,29.80
2023-01-29T22:43:31.778Z,28.50
2023-01-29T22:45:58.738Z,28.77
2023-01-29T22:48:35.286Z,29.08
2023-01-29T22:51:18.324Z,26.80
2023-01-29T22:53:53.818Z,28.17
2023-01-29T22:56:31.310Z,28.00
2023-01-29T22:59:00.372Z,28.83
2023-01-29T23:01:38.365Z,28.50
2023-01-29T23:04:11.358Z,27.38
2023-01-29T23:06:51.349Z,28.30
2023-01-29T23:09:19.089Z,28.90
2023-01-29T23:11:52.308Z,26.67
2023-01-29T23:14:19.187Z,27.45
2023-01-29T23:16:53.398Z,27.45
2023-01-29T23:19:20.320Z,28.88
2023-01-29T23:21:53.301Z,28.48
2023-01-29T23:24:26.333Z,27.63
2023-01-29T23:27:18.365Z,26.98
2023-01-29T23:29:53.378Z,28.98
2023-01-29T23:32:21.935Z,27.67
2023-01-29T23:34:55.365Z,26.25
2023-01-29T23:37:28.361Z,25.98
2023-01-29T23:39:55.173Z,26.05
2023-01-29T23:42:28.410Z,27.08
2023-01-29T23:44:55.215Z,24.95
2023-01-29T23:47:28.412Z,24.92
2023-01-29T23:49:55.207Z,24.40
2023-01-29T23:52:28.402Z,23.58
2023-01-29T23:54:55.128Z,22.67
2023-01-29T23:57:22.061Z,23.25
2023-01-29T23:59:55.432Z,21.75
